createdAt,value
2023-01-09T00:00:00.162Z,72.98
2023-01-09T00:02:14.182Z,72.85
2023-01-09T00:04:27.003Z,73.17
2023-01-09T00:06:41.213Z,73.24
2023-01-09T00:08:54.440Z,73.63
2023-01-09T00:11:08.659Z,73.71
2023-01-09T00:13:22.369Z,74.07
2023-01-09T00:15:35.699Z,74.12
2023-01-09T00:17:50.900Z,74.07
2023-01-09T00:20:05.328Z,74.37
2023-01-09T00:22:18.044Z,74.28
2023-01-09T00:24:31.337Z,74.37
2023-01-09T00:26:44.263Z,74.83
2023-01-09T00:28:58.887Z,74.99
2023-01-09T00:31:13.891Z,74.66
2023-01-09T00:33:27.713Z,75.00
2023-01-09T00:35:41.026Z,75.17
2023-01-09T00:37:54.132Z,75.03
2023-01-09T00:40:08.229Z,74.88
2023-01-09T00:42:30.158Z,75.12
2023-01-09T00:44:51.506Z,75.47
2023-01-09T00:47:12.076Z,75.47
2023-01-09T00:49:25.897Z,75.55
2023-01-09T00:51:40.177Z,75.48
2023-01-09T00:53:54.020Z,75.59
2023-01-09T00:56:10.438Z,75.89
2023-01-09T00:58:23.887Z,76.21
2023-01-09T01:00:36.907Z,76.10
2023-01-09T01:02:50.334Z,76.06
2023-01-09T01:05:20.759Z,76.19
2023-01-09T01:07:44.796Z,75.92
2023-01-09T01:09:57.866Z,76.16
2023-01-09T01:12:11.833Z,76.30
2023-01-09T01:14:25.869Z,76.31
2023-01-09T01:16:40.436Z,76.44
2023-01-09T01:18:54.434Z,76.36
2023-01-09T01:21:11.959Z,76.56
2023-01-09T01:23:26.062Z,76.51
2023-01-09T01:25:41.150Z,76.75
2023-01-09T01:27:54.667Z,76.86
2023-01-09T01:30:09.880Z,76.93
2023-01-09T01:32:22.973Z,76.98
2023-01-09T01:34:36.709Z,77.05
2023-01-09T01:36:50.390Z,77.34
2023-01-09T01:39:04.128Z,77.30
2023-01-09T01:41:31.281Z,77.31
2023-01-09T01:43:58.309Z,77.67
2023-01-09T01:46:12.132Z,77.70
2023-01-09T01:48:30.785Z,77.66
2023-01-09T01:50:48.164Z,77.34
2023-01-09T01:53:07.215Z,77.28
2023-01-09T01:55:22.573Z,77.59
2023-01-09T01:57:37.401Z,77.27
2023-01-09T01:59:56.909Z,77.51
2023-01-09T02:02:11.350Z,77.38
2023-01-09T02:04:25.066Z,77.48
2023-01-09T02:06:40.793Z,77.47
2023-01-09T02:08:54.353Z,77.42
2023-01-09T02:11:10.040Z,77.76
2023-01-09T02:13:25.663Z,77.96
2023-01-09T02:15:53.520Z,77.81
2023-01-09T02:18:30.817Z,77.72
2023-01-09T02:20:56.316Z,78.02
2023-01-09T02:23:33.783Z,78.17
2023-01-09T02:26:11.704Z,78.43
2023-01-09T02:28:54.234Z,78.21
2023-01-09T02:31:11.700Z,78.22
2023-01-09T02:33:53.061Z,78.38
2023-01-09T02:36:25.052Z,78.31
2023-01-09T02:38:44.685Z,78.44
2023-01-09T02:41:03.789Z,78.72
2023-01-09T02:43:19.578Z,78.79
2023-01-09T02:45:34.036Z,78.98
2023-01-09T02:47:50.838Z,79.09
2023-01-09T02:50:07.369Z,78.95
2023-01-09T02:52:38.801Z,78.95
2023-01-09T02:55:02.448Z,79.11
2023-01-09T02:57:33.290Z,79.00
2023-01-09T02:59:59.918Z,79.31
2023-01-09T03:02:35.590Z,79.24
2023-01-09T03:05:00.355Z,79.25
2023-01-09T03:07:17.848Z,79.73
2023-01-09T03:09:36.363Z,79.57
2023-01-09T03:11:55.908Z,79.91
2023-01-09T03:14:13.809Z,79.61
2023-01-09T03:16:28.139Z,79.79
2023-01-09T03:18:42.518Z,79.63
2023-01-09T03:20:57.410Z,79.62
2023-01-09T03:23:12.001Z,80.14
2023-01-09T03:25:26.355Z,80.18
2023-01-09T03:27:40.279Z,80.06
2023-01-09T03:29:54.388Z,80.02
2023-01-09T03:32:08.924Z,80.21
2023-01-09T03:34:21.906Z,79.98
2023-01-09T03:36:35.927Z,80.12
2023-01-09T03:38:49.971Z,80.39
2023-01-09T03:41:04.394Z,80.02
2023-01-09T03:43:18.084Z,80.22
2023-01-09T03:45:32.432Z,80.21
2023-01-09T03:47:45.562Z,80.53
2023-01-09T03:49:59.216Z,80.54
2023-01-09T03:52:14.400Z,81.09
2023-01-09T03:54:28.519Z,81.27
2023-01-09T03:56:42.295Z,81.63
2023-01-09T03:58:56.734Z,82.08
2023-01-09T04:01:13.699Z,81.99
2023-01-09T04:03:28.034Z,82.13
2023-01-09T04:05:41.310Z,82.36
2023-01-09T04:07:54.514Z,82.57
2023-01-09T04:10:08.817Z,82.90
2023-01-09T04:12:22.883Z,82.98
2023-01-09T04:14:36.824Z,83.05
2023-01-09T04:16:50.933Z,83.04
2023-01-09T04:19:04.390Z,83.14
2023-01-09T04:21:16.814Z,83.02
2023-01-09T04:23:30.631Z,83.11
2023-01-09T04:25:44.076Z,82.93
2023-01-09T04:27:57.525Z,82.84
2023-01-09T04:30:11.887Z,82.70
2023-01-09T04:32:24.994Z,82.56
2023-01-09T04:34:38.815Z,82.54
2023-01-09T04:36:52.747Z,82.44
2023-01-09T04:39:05.671Z,82.29
2023-01-09T04:41:39.716Z,82.35
2023-01-09T04:43:55.198Z,81.77
2023-01-09T04:46:08.079Z,81.86
2023-01-09T04:48:21.920Z,81.87
2023-01-09T04:50:35.776Z,81.34
2023-01-09T04:52:49.588Z,81.32
2023-01-09T04:55:03.331Z,81.28
2023-01-09T04:57:16.612Z,80.93
2023-01-09T04:59:29.164Z,80.85
2023-01-09T05:01:42.495Z,80.79
2023-01-09T05:03:57.627Z,80.63
2023-01-09T05:06:12.167Z,80.61
2023-01-09T05:08:25.853Z,80.45
2023-01-09T05:10:39.513Z,80.31
2023-01-09T05:12:53.588Z,80.45
2023-01-09T05:15:07.274Z,80.38
2023-01-09T05:17:20.973Z,80.28
2023-01-09T05:19:35.580Z,80.37
2023-01-09T05:21:48.550Z,80.23
2023-01-09T05:24:02.490Z,80.00
2023-01-09T05:26:15.406Z,79.81
2023-01-09T05:28:30.802Z,79.94
2023-01-09T05:30:44.535Z,79.77
2023-01-09T05:32:57.621Z,79.78
2023-01-09T05:35:11.664Z,79.69
2023-01-09T05:37:25.662Z,79.71
2023-01-09T05:39:39.566Z,79.82
2023-01-09T05:41:53.236Z,79.88
2023-01-09T05:44:07.606Z,79.72
2023-01-09T05:46:20.913Z,79.59
2023-01-09T05:48:34.461Z,79.63
2023-01-09T05:50:48.478Z,79.36
2023-01-09T05:53:02.392Z,79.46
2023-01-09T05:55:17.853Z,79.19
2023-01-09T05:57:31.700Z,78.92
2023-01-09T05:59:45.495Z,79.00
2023-01-09T06:01:58.478Z,78.86
2023-01-09T06:04:12.196Z,78.95
2023-01-09T06:06:25.697Z,79.30
2023-01-09T06:08:39.247Z,79.32
2023-01-09T06:10:53.062Z,79.39
2023-01-09T06:13:06.015Z,79.38
2023-01-09T06:15:21.513Z,79.48
2023-01-09T06:17:35.318Z,79.66
2023-01-09T06:19:49.223Z,79.79
2023-01-09T06:22:03.333Z,79.68
2023-01-09T06:24:17.515Z,79.89
2023-01-09T06:26:31.640Z,79.89
2023-01-09T06:28:45.608Z,80.02
2023-01-09T06:31:00.385Z,80.09
2023-01-09T06:33:13.424Z,80.11
2023-01-09T06:35:26.981Z,80.19
2023-01-09T06:37:40.868Z,80.21
2023-01-09T06:39:55.217Z,80.45
2023-01-09T06:42:09.608Z,80.39
2023-01-09T06:44:23.058Z,80.65
2023-01-09T06:46:36.961Z,80.65
2023-01-09T06:48:50.184Z,80.60
2023-01-09T06:51:04.236Z,80.56
2023-01-09T06:53:18.301Z,80.64
2023-01-09T06:55:33.007Z,80.69
2023-01-09T06:57:46.166Z,80.62
2023-01-09T07:00:00.075Z,80.73
2023-01-09T07:02:23.612Z,80.59
2023-01-09T07:04:36.954Z,80.57
2023-01-09T07:06:52.975Z,80.59
2023-01-09T07:09:07.027Z,80.54
2023-01-09T07:11:21.127Z,80.58
2023-01-09T07:13:35.059Z,80.44
2023-01-09T07:15:51.140Z,80.59
2023-01-09T07:18:04.696Z,80.52
2023-01-09T07:20:19.171Z,80.58
2023-01-09T07:22:33.154Z,80.54
2023-01-09T07:24:47.713Z,80.57
2023-01-09T07:27:01.175Z,80.55
2023-01-09T07:29:15.564Z,80.63
2023-01-09T07:31:29.212Z,80.75
2023-01-09T07:33:43.155Z,80.67
2023-01-09T07:35:56.996Z,80.77
2023-01-09T07:38:11.718Z,80.89
2023-01-09T07:40:25.654Z,80.92
2023-01-09T07:42:39.277Z,80.94
2023-01-09T07:44:54.133Z,81.06
2023-01-09T07:47:07.336Z,81.07
2023-01-09T07:49:22.417Z,81.16
2023-01-09T07:51:35.812Z,81.10
2023-01-09T07:53:49.503Z,81.01
2023-01-09T07:56:02.454Z,80.90
2023-01-09T07:58:16.890Z,81.05
2023-01-09T08:00:32.369Z,81.00
2023-01-09T08:02:45.931Z,80.88
2023-01-09T08:05:01.992Z,80.99
2023-01-09T08:07:15.407Z,81.09
2023-01-09T08:09:28.288Z,81.10
2023-01-09T08:11:42.546Z,81.05
2023-01-09T08:13:55.818Z,81.12
2023-01-09T08:16:09.807Z,81.15
2023-01-09T08:18:23.730Z,81.30
2023-01-09T08:20:36.953Z,81.09
2023-01-09T08:22:54.515Z,81.06
2023-01-09T08:25:07.904Z,81.06
2023-01-09T08:27:21.147Z,81.09
2023-01-09T08:29:34.315Z,80.96
2023-01-09T08:31:46.943Z,80.90
2023-01-09T08:34:00.991Z,80.83
2023-01-09T08:36:15.089Z,80.73
2023-01-09T08:38:27.978Z,80.61
2023-01-09T08:40:41.575Z,80.61
2023-01-09T08:43:11.591Z,80.69
2023-01-09T08:45:41.584Z,80.51
2023-01-09T08:47:55.793Z,80.53
2023-01-09T08:50:09.844Z,80.42
2023-01-09T08:52:22.670Z,80.44
2023-01-09T08:54:37.889Z,80.45
2023-01-09T08:56:51.711Z,80.56
2023-01-09T08:59:04.943Z,80.47
2023-01-09T09:01:18.857Z,80.55
2023-01-09T09:03:34.024Z,80.42
2023-01-09T09:05:47.486Z,80.63
2023-01-09T09:08:01.251Z,80.50
2023-01-09T09:10:15.283Z,80.42
2023-01-09T09:12:29.315Z,80.52
2023-01-09T09:15:00.311Z,80.29
2023-01-09T09:17:14.280Z,80.34
2023-01-09T09:19:27.689Z,80.18
2023-01-09T09:21:40.891Z,80.21
2023-01-09T09:23:54.940Z,80.25
2023-01-09T09:26:08.633Z,80.04
2023-01-09T09:28:22.403Z,80.06
2023-01-09T09:30:35.825Z,79.87
2023-01-09T09:32:49.635Z,79.94
2023-01-09T09:35:03.312Z,79.85
2023-01-09T09:37:16.168Z,79.76
2023-01-09T09:39:30.358Z,79.72
2023-01-09T09:42:25.607Z,79.58
2023-01-09T09:44:54.990Z,79.37
2023-01-09T09:47:16.176Z,79.11
2023-01-09T09:49:38.872Z,79.13
2023-01-09T09:52:04.846Z,78.90
2023-01-09T09:54:22.720Z,78.76
2023-01-09T09:56:39.886Z,78.74
2023-01-09T09:58:58.623Z,78.66
2023-01-09T10:01:12.677Z,78.54
2023-01-09T10:03:34.854Z,78.41
2023-01-09T10:05:47.066Z,78.40
2023-01-09T10:08:11.555Z,78.39
2023-01-09T10:10:36.228Z,78.08
2023-01-09T10:12:55.440Z,77.98
2023-01-09T10:15:18.867Z,77.90
2023-01-09T10:17:59.846Z,77.93
2023-01-09T10:20:38.801Z,77.99
2023-01-09T10:23:02.526Z,77.88
2023-01-09T10:25:25.157Z,77.81
2023-01-09T10:27:57.157Z,78.00
2023-01-09T10:30:30.876Z,77.90
2023-01-09T10:33:02.472Z,77.85
2023-01-09T10:35:55.143Z,77.76
2023-01-09T10:38:11.964Z,77.75
2023-01-09T10:40:28.362Z,77.88
2023-01-09T10:42:48.648Z,77.78
2023-01-09T10:45:06.946Z,77.72
2023-01-09T10:47:24.195Z,77.72
2023-01-09T10:49:36.712Z,77.77
2023-01-09T10:51:53.425Z,77.80
2023-01-09T10:54:14.454Z,77.66
2023-01-09T10:56:30.029Z,77.68
2023-01-09T10:58:42.980Z,77.51
2023-01-09T11:00:57.966Z,77.59
2023-01-09T11:03:13.951Z,77.40
2023-01-09T11:05:31.119Z,77.51
2023-01-09T11:07:49.021Z,77.44
2023-01-09T11:10:09.478Z,77.48
2023-01-09T11:12:32.992Z,77.10
2023-01-09T11:14:46.937Z,77.25
2023-01-09T11:17:01.427Z,77.29
2023-01-09T11:19:19.986Z,77.04
2023-01-09T11:21:41.678Z,77.02
2023-01-09T11:23:55.468Z,76.63
2023-01-09T11:26:10.983Z,76.44
2023-01-09T11:28:24.385Z,76.57
2023-01-09T11:30:40.264Z,76.55
2023-01-09T11:32:55.230Z,76.53
2023-01-09T11:35:18.643Z,76.21
2023-01-09T11:37:33.791Z,76.10
2023-01-09T11:39:51.679Z,75.83
2023-01-09T11:42:07.467Z,75.68
2023-01-09T11:44:22.573Z,75.65
2023-01-09T11:46:42.617Z,75.78
2023-01-09T11:49:02.971Z,75.36
2023-01-09T11:51:27.085Z,75.27
2023-01-09T11:54:04.801Z,75.01
2023-01-09T11:56:20.386Z,74.78
2023-01-09T11:58:37.286Z,74.83
2023-01-09T12:00:57.575Z,74.59
2023-01-09T12:03:23.348Z,74.54
2023-01-09T12:05:48.309Z,73.95
2023-01-09T12:08:10.474Z,73.93
2023-01-09T12:10:30.584Z,73.51
2023-01-09T12:12:49.874Z,72.63
2023-01-09T12:15:19.845Z,72.68
2023-01-09T12:17:51.995Z,71.93
2023-01-09T12:20:30.993Z,71.24
2023-01-09T12:22:52.540Z,70.35
2023-01-09T12:25:31.418Z,69.67
2023-01-09T12:28:09.836Z,69.28
2023-01-09T12:30:52.156Z,68.53
2023-01-09T12:33:26.385Z,68.15
2023-01-09T12:35:44.276Z,68.58
2023-01-09T12:38:14.638Z,68.70
2023-01-09T12:40:41.590Z,68.54
2023-01-09T12:43:03.320Z,68.62
2023-01-09T12:45:33.157Z,68.80
2023-01-09T12:47:54.561Z,68.17
2023-01-09T12:50:24.207Z,68.10
2023-01-09T12:52:42.796Z,68.49
2023-01-09T12:55:04.795Z,68.46
2023-01-09T12:57:20.836Z,67.94
2023-01-09T12:59:40.384Z,67.53
2023-01-09T13:01:55.899Z,66.88
2023-01-09T13:04:18.317Z,67.46
2023-01-09T13:06:33.526Z,67.26
2023-01-09T13:08:50.850Z,67.55
2023-01-09T13:11:19.889Z,67.25
2023-01-09T13:13:47.069Z,67.45
2023-01-09T13:16:05.712Z,67.58
2023-01-09T13:18:24.663Z,67.68
2023-01-09T13:20:47.090Z,67.88
2023-01-09T13:23:01.487Z,67.76
2023-01-09T13:25:45.045Z,67.59
2023-01-09T13:28:04.167Z,67.19
2023-01-09T13:30:35.614Z,67.06
2023-01-09T13:32:58.307Z,66.72
2023-01-09T13:35:18.610Z,66.43
2023-01-09T13:37:34.109Z,66.54
2023-01-09T13:39:57.723Z,65.87
2023-01-09T13:42:46.068Z,66.01
2023-01-09T13:45:12.733Z,65.09
2023-01-09T13:47:28.930Z,64.60
2023-01-09T13:50:25.759Z,64.34
2023-01-09T13:52:42.200Z,63.97
2023-01-09T13:55:36.724Z,65.08
2023-01-09T13:58:16.174Z,65.11
2023-01-09T14:00:59.266Z,64.74
2023-01-09T14:03:26.968Z,65.48
2023-01-09T14:06:30.003Z,65.91
2023-01-09T14:08:44.778Z,66.36
2023-01-09T14:11:01.569Z,66.36
2023-01-09T14:13:20.715Z,66.98
2023-01-09T14:15:40.564Z,67.16
2023-01-09T14:18:01.915Z,67.42
2023-01-09T14:20:31.622Z,67.85
2023-01-09T14:22:55.881Z,68.76
2023-01-09T14:25:17.445Z,69.85
2023-01-09T14:28:10.604Z,70.17
2023-01-09T14:30:38.762Z,70.52
2023-01-09T14:33:01.365Z,70.47
2023-01-09T14:35:26.324Z,71.03
2023-01-09T14:37:43.024Z,71.27
2023-01-09T14:39:59.752Z,71.56
2023-01-09T14:42:23.789Z,71.75
2023-01-09T14:44:48.674Z,71.54
2023-01-09T14:47:03.367Z,71.38
2023-01-09T14:49:26.375Z,71.66
2023-01-09T14:51:47.421Z,71.57
2023-01-09T14:54:03.211Z,71.69
2023-01-09T14:56:35.894Z,71.91
2023-01-09T14:58:49.823Z,71.98
2023-01-09T15:01:08.778Z,72.36
2023-01-09T15:03:24.659Z,72.70
2023-01-09T15:05:39.416Z,72.90
2023-01-09T15:07:57.620Z,73.06
2023-01-09T15:10:19.197Z,73.38
2023-01-09T15:12:32.986Z,73.37
2023-01-09T15:14:48.221Z,73.28
2023-01-09T15:17:02.130Z,73.53
2023-01-09T15:19:17.775Z,73.61
2023-01-09T15:21:33.651Z,73.77
2023-01-09T15:23:47.410Z,74.05
2023-01-09T15:26:15.039Z,74.27
2023-01-09T15:28:33.600Z,74.11
2023-01-09T15:30:47.621Z,74.46
2023-01-09T15:33:00.978Z,74.60
2023-01-09T15:35:20.945Z,74.81
2023-01-09T15:37:38.939Z,74.78
2023-01-09T15:39:53.154Z,74.97
2023-01-09T15:42:24.559Z,74.99
2023-01-09T15:44:39.018Z,75.32
2023-01-09T15:46:53.544Z,75.15
2023-01-09T15:49:07.857Z,75.18
2023-01-09T15:51:22.267Z,75.08
2023-01-09T15:53:37.460Z,75.04
2023-01-09T15:56:06.012Z,74.86
2023-01-09T15:58:33.422Z,74.80
2023-01-09T16:00:49.330Z,74.72
2023-01-09T16:03:15.819Z,74.64
2023-01-09T16:05:30.521Z,74.50
2023-01-09T16:07:52.485Z,74.12
2023-01-09T16:10:06.227Z,73.92
2023-01-09T16:12:27.032Z,73.80
2023-01-09T16:14:46.620Z,73.47
2023-01-09T16:17:05.729Z,73.13
2023-01-09T16:19:47.446Z,72.97
2023-01-09T16:22:06.780Z,72.88
2023-01-09T16:24:41.383Z,72.55
2023-01-09T16:27:14.888Z,72.73
2023-01-09T16:29:48.548Z,72.66
2023-01-09T16:32:08.853Z,71.98
2023-01-09T16:34:22.726Z,71.81
2023-01-09T16:36:37.028Z,71.65
2023-01-09T16:38:51.031Z,71.14
2023-01-09T16:41:28.226Z,70.98
2023-01-09T16:43:42.361Z,70.95
2023-01-09T16:45:56.769Z,71.17
2023-01-09T16:48:17.631Z,71.31
2023-01-09T16:50:31.481Z,70.97
2023-01-09T16:52:47.380Z,71.14
2023-01-09T16:55:01.919Z,71.35
2023-01-09T16:57:21.872Z,71.30
2023-01-09T16:59:36.046Z,71.45
2023-01-09T17:01:49.424Z,71.57
2023-01-09T17:04:03.543Z,71.73
2023-01-09T17:06:21.295Z,72.27
2023-01-09T17:08:36.698Z,72.22
2023-01-09T17:10:50.206Z,72.25
2023-01-09T17:13:03.558Z,72.26
2023-01-09T17:15:17.409Z,72.09
2023-01-09T17:17:30.198Z,72.22
2023-01-09T17:19:44.214Z,71.92
2023-01-09T17:21:57.034Z,72.19
2023-01-09T17:24:28.431Z,72.06
2023-01-09T17:27:00.639Z,71.99
2023-01-09T17:29:14.115Z,71.87
2023-01-09T17:31:27.997Z,71.83
2023-01-09T17:33:42.602Z,71.90
2023-01-09T17:35:56.043Z,71.23
2023-01-09T17:38:10.271Z,71.60
2023-01-09T17:40:26.297Z,71.78
2023-01-09T17:42:39.673Z,71.44
2023-01-09T17:44:53.201Z,71.29
2023-01-09T17:47:07.449Z,70.63
2023-01-09T17:49:23.300Z,70.02
2023-01-09T17:51:36.900Z,68.72
2023-01-09T17:53:50.456Z,68.59
2023-01-09T17:56:04.362Z,68.28
2023-01-09T17:58:31.441Z,68.08
2023-01-09T18:00:45.839Z,67.83
2023-01-09T18:02:59.469Z,68.29
2023-01-09T18:05:14.497Z,68.28
2023-01-09T18:07:28.224Z,67.64
2023-01-09T18:09:41.749Z,67.57
2023-01-09T18:11:55.224Z,67.60
2023-01-09T18:14:08.312Z,67.26
2023-01-09T18:16:24.874Z,66.97
2023-01-09T18:18:39.368Z,66.79
2023-01-09T18:20:53.726Z,66.82
2023-01-09T18:23:07.448Z,66.46
2023-01-09T18:25:21.220Z,66.98
2023-01-09T18:27:34.422Z,67.06
2023-01-09T18:29:48.694Z,67.52
2023-01-09T18:32:02.841Z,67.64
2023-01-09T18:34:17.058Z,67.57
2023-01-09T18:36:32.606Z,67.60
2023-01-09T18:38:45.050Z,68.03
2023-01-09T18:41:04.188Z,68.59
2023-01-09T18:43:17.583Z,68.58
2023-01-09T18:45:30.328Z,69.17
2023-01-09T18:47:42.895Z,69.64
2023-01-09T18:49:55.503Z,70.32
2023-01-09T18:52:08.974Z,70.83
2023-01-09T18:54:22.974Z,70.85
2023-01-09T18:56:36.130Z,70.94
2023-01-09T18:58:49.318Z,71.13
2023-01-09T19:01:02.621Z,71.51
2023-01-09T19:03:19.558Z,71.69
2023-01-09T19:05:34.931Z,71.80
2023-01-09T19:07:48.416Z,72.02
2023-01-09T19:10:01.567Z,72.14
2023-01-09T19:12:15.666Z,72.25
2023-01-09T19:14:29.924Z,72.53
2023-01-09T19:16:44.489Z,72.50
2023-01-09T19:18:59.286Z,72.77
2023-01-09T19:21:18.367Z,74.10
2023-01-09T19:23:32.507Z,74.58
2023-01-09T19:25:49.460Z,74.69
2023-01-09T19:28:04.667Z,74.90
2023-01-09T19:30:19.064Z,74.74
2023-01-09T19:32:33.079Z,74.43
2023-01-09T19:34:47.403Z,74.13
2023-01-09T19:37:01.289Z,73.87
2023-01-09T19:39:15.231Z,73.81
2023-01-09T19:41:28.722Z,73.77
2023-01-09T19:43:41.945Z,73.83
2023-01-09T19:45:55.991Z,73.42
2023-01-09T19:48:10.856Z,73.72
2023-01-09T19:50:23.145Z,73.86
2023-01-09T19:52:36.967Z,74.00
2023-01-09T19:54:51.278Z,73.39
2023-01-09T19:57:04.224Z,73.58
2023-01-09T19:59:17.408Z,72.90
2023-01-09T20:01:32.109Z,72.87
2023-01-09T20:03:46.209Z,72.69
2023-01-09T20:06:05.236Z,72.48
2023-01-09T20:08:18.476Z,72.63
2023-01-09T20:10:32.462Z,72.39
2023-01-09T20:12:45.816Z,72.29
2023-01-09T20:14:58.822Z,72.46
2023-01-09T20:17:13.074Z,72.57
2023-01-09T20:19:28.477Z,72.43
2023-01-09T20:21:42.978Z,72.54
2023-01-09T20:23:57.097Z,72.64
2023-01-09T20:26:12.933Z,72.58
2023-01-09T20:28:27.399Z,72.57
2023-01-09T20:30:43.535Z,72.19
2023-01-09T20:32:57.114Z,72.39
2023-01-09T20:35:14.224Z,72.39
2023-01-09T20:37:27.906Z,73.09
2023-01-09T20:39:41.225Z,73.25
2023-01-09T20:41:56.208Z,73.67
2023-01-09T20:44:11.399Z,74.41
2023-01-09T20:46:25.622Z,74.88
2023-01-09T20:48:39.606Z,74.98
2023-01-09T20:50:52.813Z,75.36
2023-01-09T20:53:08.055Z,75.50
2023-01-09T20:55:21.478Z,76.12
2023-01-09T20:57:35.236Z,76.32
2023-01-09T20:59:48.736Z,76.06
2023-01-09T21:02:01.820Z,76.48
2023-01-09T21:04:15.961Z,76.75
2023-01-09T21:06:30.765Z,76.94
2023-01-09T21:08:45.299Z,76.91
2023-01-09T21:11:01.105Z,77.36
2023-01-09T21:13:14.837Z,77.08
2023-01-09T21:15:29.097Z,77.57
2023-01-09T21:17:43.275Z,77.57
2023-01-09T21:19:56.338Z,77.52
2023-01-09T21:22:09.801Z,77.12
2023-01-09T21:24:23.353Z,77.42
2023-01-09T21:26:36.513Z,77.35
2023-01-09T21:28:51.027Z,77.09
2023-01-09T21:31:05.632Z,77.07
2023-01-09T21:33:18.730Z,77.03
2023-01-09T21:35:31.943Z,77.06
2023-01-09T21:37:45.891Z,76.73
2023-01-09T21:40:00.161Z,76.58
2023-01-09T21:42:31.607Z,76.66
2023-01-09T21:45:02.048Z,76.70
2023-01-09T21:47:15.632Z,76.75
2023-01-09T21:49:32.190Z,75.74
2023-01-09T21:51:46.533Z,75.76
2023-01-09T21:53:59.642Z,75.48
2023-01-09T21:56:13.472Z,75.49
2023-01-09T21:58:26.318Z,75.27
2023-01-09T22:00:40.439Z,74.72
2023-01-09T22:02:54.967Z,74.92
2023-01-09T22:05:09.650Z,74.55
2023-01-09T22:07:24.537Z,74.72
2023-01-09T22:09:38.628Z,74.62
2023-01-09T22:11:52.368Z,74.68
2023-01-09T22:14:06.171Z,74.91
2023-01-09T22:16:19.336Z,74.74
2023-01-09T22:18:33.140Z,74.41
2023-01-09T22:20:47.714Z,74.42
2023-01-09T22:23:01.130Z,74.78
2023-01-09T22:25:15.014Z,74.68
2023-01-09T22:27:28.981Z,74.41
2023-01-09T22:29:42.079Z,74.29
2023-01-09T22:31:54.767Z,74.21
2023-01-09T22:34:08.881Z,73.84
2023-01-09T22:36:22.951Z,73.77
2023-01-09T22:38:37.239Z,73.86
2023-01-09T22:40:50.496Z,74.04
2023-01-09T22:43:05.435Z,73.75
2023-01-09T22:45:19.811Z,73.81
2023-01-09T22:47:34.964Z,74.01
2023-01-09T22:49:53.093Z,73.94
2023-01-09T22:52:08.596Z,74.28
2023-01-09T22:54:23.433Z,74.24
2023-01-09T22:56:37.335Z,74.03
2023-01-09T22:58:52.483Z,74.20
2023-01-09T23:01:05.888Z,74.16
2023-01-09T23:03:19.941Z,74.54
2023-01-09T23:05:33.229Z,74.47
2023-01-09T23:07:46.949Z,74.24
2023-01-09T23:10:03.069Z,74.32
2023-01-09T23:12:17.078Z,74.54
2023-01-09T23:14:31.290Z,74.46
2023-01-09T23:16:45.456Z,74.45
2023-01-09T23:18:59.817Z,74.55
2023-01-09T23:21:13.464Z,74.33
2023-01-09T23:23:28.139Z,74.60
2023-01-09T23:25:42.314Z,75.01
2023-01-09T23:27:55.615Z,74.94
2023-01-09T23:30:09.325Z,74.93
2023-01-09T23:32:23.283Z,75.08
2023-01-09T23:34:37.464Z,75.03
2023-01-09T23:36:52.060Z,74.96
2023-01-09T23:39:10.208Z,74.85
2023-01-09T23:41:45.772Z,74.88
2023-01-09T23:44:00.343Z,74.72
2023-01-09T23:46:15.167Z,74.67
2023-01-09T23:48:30.572Z,75.01
2023-01-09T23:50:45.976Z,74.76
2023-01-09T23:52:59.162Z,74.72
2023-01-09T23:55:13.421Z,74.59
2023-01-09T23:57:28.123Z,74.67
2023-01-09T23:59:41.208Z,74.65
